• Join FlightAware (Why Join?)
  • Login
  • US Flag 
10:49PM EST


 

Airport Tracker/Info


-or-


 

Live Flight TrackerFlight Track Log ✈ QLK371 ✈ 27-Jul-2013 ✈ YHBA / HVB - YBBN / BNE

Flight Track Log - Related Links

Times and Time Zones

All times are in EDT time to prevent confusion due to time zone crossing. See the QLK371 flight status page for this flight to view local times or setup timezone preferences in your user account.

Time Position Orientation Groundspeed Altitude Reporting Facility
EDT Latitude Longitude Course Direction KTS MPH feet Rate Location/Type
04:54PM -25.3460 152.8377 194° South 144 166 3,100  Level Aus ATC (RADAR)
04:55PM -25.3867 152.8262 194° South 132 152 4,800 1,560 Climbing Aus ATC (RADAR)
04:56PM -25.4283 152.7884 219° Southwest 169 194 6,500 1,440 Climbing Aus ATC (RADAR)
04:57PM -25.4704 152.7539 217° Southwest 183 211 7,800 1,320 Climbing Aus ATC (RADAR)
04:58PM -25.5171 152.7139 218° Southwest 187 215 9,300 1,320 Climbing Aus ATC (RADAR)
04:59PM -25.5703 152.7117 182° South 194 223 10,600 1,200 Climbing Aus ATC (RADAR)
05:00PM -25.6018 152.7140 176° South 195 224 11,200 1,020 Climbing Aus ATC (RADAR)
05:00PM -25.6330 152.7149 178° South 193 222 11,800 1,020 Climbing Aus ATC (RADAR)
05:01PM -25.6649 152.7161 178° South 196 226 12,400 960 Climbing Aus ATC (RADAR)
05:02PM -25.7015 152.7171 179° South 199 229 13,000 960 Climbing Aus ATC (RADAR)
05:02PM -25.7376 152.7184 178° South 196 226 13,700 1,020 Climbing Aus ATC (RADAR)
05:03PM -25.7649 152.7197 178° South 197 227 14,200 900 Climbing Aus ATC (RADAR)
05:03PM -25.7921 152.7208 178° South 196 226 14,600 720 Climbing Aus ATC (RADAR)
05:04PM -25.8288 152.7219 178° South 198 228 15,100 720 Climbing Aus ATC (RADAR)
05:04PM -25.8564 152.7237 177° South 200 230 15,500 240 Climbing Aus ATC (RADAR)
05:05PM -25.8973 152.7251 178° South 223 257 15,400 -120 Descending Aus ATC (RADAR)
05:06PM -25.9352 152.7268 178° South 232 267 15,400  Level Aus ATC (RADAR)
05:06PM -25.9796 152.7292 177° South 242 278 15,400  Level Aus ATC (RADAR)
05:07PM -26.0495 152.7314 178° South 255 293 15,400  Level Aus ATC (RADAR)
05:08PM -26.0965 152.7333 178° South 254 292 15,400  Level Aus ATC (RADAR)
05:08PM -26.1321 152.7346 178° South 255 293 15,400  Level Aus ATC (RADAR)
05:09PM -26.1734 152.7370 177° South 255 293 15,400  Level Aus ATC (RADAR)
05:10PM -26.2150 152.7388 178° South 256 295 15,400  Level Aus ATC (RADAR)
05:10PM -26.2626 152.7410 178° South 256 295 15,400  Level Aus ATC (RADAR)
05:11PM -26.3102 152.7428 178° South 257 296 15,400  Level Aus ATC (RADAR)
05:12PM -26.3817 152.7464 177° South 258 297 15,400  Level Aus ATC (RADAR)
05:13PM -26.4239 152.7481 178° South 260 299 15,400  Level Aus ATC (RADAR)
05:13PM -26.4655 152.7502 177° South 258 297 15,400  Level Aus ATC (RADAR)
05:14PM -26.5016 152.7515 178° South 259 298 15,400  Level Aus ATC (RADAR)
05:14PM -26.5495 152.7534 178° South 259 298 15,400  Level Aus ATC (RADAR)
05:15PM -26.5916 152.7553 178° South 259 298 15,400  Level Aus ATC (RADAR)
05:15PM -26.6278 152.7568 178° South 260 299 15,400 -240 Level Aus ATC (RADAR)
05:16PM -26.6700 152.7562 181° South 258 297 15,200 -600 Descending Aus ATC (RADAR)
05:17PM -26.7132 152.7485 189° South 266 306 14,700 -960 Descending Aus ATC (RADAR)
05:17PM -26.7491 152.7586 166° South 265 305 14,200 -1,380 Descending Aus ATC (RADAR)
05:18PM -26.8063 152.7964 149° Southeast 255 293 12,800 -1,560 Descending Aus ATC (RADAR)
05:19PM -26.8630 152.8311 151° Southeast 250 288 11,400 -1,680 Descending Aus ATC (RADAR)
05:20PM -26.9042 152.8560 152° Southeast 248 285 10,200 -1,740 Descending Aus ATC (RADAR)
05:20PM -26.9344 152.8746 151° Southeast 243 280 9,400 -1,680 Descending Aus ATC (RADAR)
05:21PM -26.9680 152.8951 152° Southeast 233 268 8,400 -1,380 Descending Aus ATC (RADAR)
05:21PM -27.0021 152.9244 143° Southeast 228 262 7,700 -1,080 Descending Aus ATC (RADAR)
05:22PM -27.0326 152.9492 144° Southeast 228 262 7,100 -1,080 Descending Aus ATC (RADAR)
05:23PM -27.0677 152.9782 144° Southeast 230 265 6,400 -1,080 Descending Aus ATC (RADAR)
05:24PM -27.1246 153.0245 144° Southeast 227 261 5,300 -1,140 Descending Aus ATC (RADAR)
05:24PM -27.1500 153.0452 144° Southeast 223 257 4,700 -1,140 Descending Aus ATC (RADAR)
05:25PM -27.1831 153.0723 144° Southeast 217 250 4,000 -960 Descending Aus ATC (RADAR)
05:25PM -27.2117 153.0949 145° Southeast 212 244 3,500 -1,020 Descending Aus ATC (RADAR)
05:26PM -27.2459 153.1231 144° Southeast 196 226 2,700 -960 Descending Aus ATC (RADAR)
05:27PM -27.2811 153.1518 144° Southeast 164 189 1,900 -840 Descending Aus ATC (RADAR)
05:28PM -27.3070 153.1666 153° Southeast 156 180 1,400 -720 Descending Aus ATC (RADAR)
05:28PM -27.3288 153.1621 190° South 137 158 1,000 -600 Descending Aus ATC (RADAR)
05:29PM -27.3455 153.1515 209° Southwest 117 135 700 -540 Descending Aus ATC (RADAR)
05:29PM -27.3603 153.1432 207° Southwest 103 119 400 -540 Descending Aus ATC (RADAR)
05:30PM -27.3735 153.1347 210° Southwest 95 109 100 -540 Descending Aus ATC (RADAR)